^^
Station Historical Data
Daily Summary for September 3, 2017 Units:  Metric    English   Both
« Previous Day
Next Day »
Daily Weekly Monthly Yearly Custom
  High: Low: Average:
Temperature: 31.6 °C 11.3 °C 21.4 °C
Dew Point: -2.7 °C -12.1 °C -8.9 °C
Humidity: 19% 8% 13%
Wind Speed: 16.3km/h -1609.1km/h -6km/h
Wind Gust: 17.7km/h - -
Wind- -
Pressure: 1019.9 hPa 1013.4 hPa -
Precipitation: 0 mm    
Historical Graphs
 
 
Tabular Data for September 3, 2017
Time Temperature Dew Point Pressure Wind Wind Speed Wind Gust Humidity Rainfall Rate (Hourly) solar Conditions
00:02 19.6 °C -11.7 °C 1018.5 hPa ESE 6.4 km/h 14.5 km/h 11% 0 mm 0.0 W/m2
00:07 19.6 °C -11.7 °C 1018.5 hPa ESE 4.7 km/h 11.3 km/h 11% 0 mm 0.0 W/m2
00:12 19.3 °C -11.9 °C 1018.5 hPa ESE 4.7 km/h 9.7 km/h 11% 0 mm 0.0 W/m2
00:22 18.4 °C -11.5 °C 1018.5 hPa ESE 4.7 km/h 6.4 km/h 12% 0 mm 0.0 W/m2
00:32 18.2 °C -11.7 °C 1018.5 hPa ESE 3.2 km/h 8 km/h 12% 0 mm 0.0 W/m2
00:37 18.1 °C -11.8 °C 1018.5 hPa ESE 4.7 km/h 6.4 km/h 12% 0 mm 0.0 W/m2
00:43 17.8 °C -12 °C 1018.5 hPa ESE 6.4 km/h 8 km/h 12% 0 mm 0.0 W/m2
00:48 17.7 °C -12.1 °C 1018.5 hPa ESE 3.2 km/h 6.4 km/h 12% 0 mm 0.0 W/m2
00:53 17.7 °C -12.1 °C 1018.5 hPa ESE 7.9 km/h 9.7 km/h 12% 0 mm 0.0 W/m2
00:58 17.7 °C -11.1 °C 1018.5 hPa ESE 6.4 km/h 9.7 km/h 13% 0 mm 0.0 W/m2
01:03 17.6 °C -11.2 °C 1018.5 hPa ESE 6.4 km/h 6.4 km/h 13% 0 mm 0.0 W/m2
01:08 17.4 °C -11.3 °C 1018.5 hPa ESE 6.4 km/h 8 km/h 13% 0 mm 0.0 W/m2
01:13 17.3 °C -11.4 °C 1018.5 hPa ESE 4.7 km/h 8 km/h 13% 0 mm 0.0 W/m2
01:18 17.2 °C -11.5 °C 1018.5 hPa ESE 6.4 km/h 8 km/h 13% 0 mm 0.0 W/m2
01:23 17.1 °C -11.6 °C 1018.5 hPa ESE 4.7 km/h 8 km/h 13% 0 mm 0.0 W/m2
01:28 17.1 °C -11.6 °C 1018.5 hPa ESE 4.7 km/h 9.7 km/h 13% 0 mm 0.0 W/m2
01:38 17.6 °C -11.2 °C 1018.5 hPa ESE 4.7 km/h 9.7 km/h 13% 0 mm 0.0 W/m2
01:43 17.8 °C -11 °C 1018.5 hPa ESE 6.4 km/h 12.9 km/h 13% 0 mm 0.0 W/m2
01:48 17.7 °C -11.1 °C 1018.5 hPa ESE 4.7 km/h 14.5 km/h 13% 0 mm 0.0 W/m2
01:53 17.7 °C -11.1 °C 1018.2 hPa ESE 4.7 km/h 9.7 km/h 13% 0 mm 0.0 W/m2
01:58 17.5 °C -11.2 °C 1018.2 hPa ESE 6.4 km/h 9.7 km/h 13% 0 mm 0.0 W/m2
03:03 17.2 °C -11.5 °C 1018.2 hPa ESE 11.1 km/h 11.3 km/h 13% 0 mm 0.0 W/m2
03:08 16.8 °C -10.9 °C 1018.2 hPa ESE 9.7 km/h 11.3 km/h 14% 0 mm 0.0 W/m2
03:14 16.7 °C -11 °C 1018.2 hPa ESE 6.4 km/h 9.7 km/h 14% 0 mm 0.0 W/m2
03:19 16.6 °C -11 °C 1018.2 hPa ESE 7.9 km/h 9.7 km/h 14% 0 mm 0.0 W/m2
03:24 16.7 °C -11 °C 1018.2 hPa ESE 6.4 km/h 8 km/h 14% 0 mm 0.0 W/m2
03:29 17.1 °C -10.6 °C 1017.8 hPa ESE 6.4 km/h 11.3 km/h 14% 0 mm 0.0 W/m2
03:34 17.2 °C -10.6 °C 1017.8 hPa ESE 6.4 km/h 6.4 km/h 14% 0 mm 0.0 W/m2
03:39 17.2 °C -10.6 °C 1017.8 hPa ESE 6.4 km/h 6.4 km/h 14% 0 mm 0.0 W/m2
03:44 17.2 °C -10.6 °C 1017.8 hPa ESE 6.4 km/h -1607.7 km/h 14% 0 mm 0.0 W/m2
03:50 17.7 °C -11.1 °C 1017.8 hPa North -1609.1 km/h -1607.7 km/h 13% 0 mm 0.0 W/m2
03:55 17.8 °C -11 °C 1017.8 hPa ESE 3.2 km/h 14.5 km/h 13% 0 mm 0.0 W/m2
04:05 17.9 °C -10.9 °C 1017.8 hPa ESE 3.2 km/h 11.3 km/h 13% 0 mm 0.0 W/m2
04:20 17.6 °C -11.2 °C 1017.8 hPa ESE 1.4 km/h 6.4 km/h 13% 0 mm 0.0 W/m2
04:25 17.3 °C -11.4 °C 1017.8 hPa Calm   8 km/h 13% 0 mm 0.0 W/m2
04:30 17.2 °C -11.5 °C 1017.8 hPa Calm   6.4 km/h 13% 0 mm 0.0 W/m2
04:40 16.8 °C -10.9 °C 1017.8 hPa ESE 6.4 km/h 6.4 km/h 14% 0 mm 0.0 W/m2
04:46 16.6 °C -11 °C 1018.2 hPa Calm     14% 0 mm 0.0 W/m2
04:51 16.6 °C -11 °C 1018.2 hPa Calm     14% 0 mm 0.0 W/m2
05:06 14.7 °C -11.7 °C 1018.2 hPa Calm   4.8 km/h 15% 0 mm 0.0 W/m2
05:11 14.2 °C -11.3 °C 1018.2 hPa Calm     16% 0 mm 0.0 W/m2
05:21 13.7 °C -11.7 °C 1018.2 hPa Calm   3.2 km/h 16% 0 mm 0.0 W/m2
05:41 12.9 °C -11.6 °C 1018.2 hPa ESE 1.4 km/h 8 km/h 17% 0 mm 0.0 W/m2
05:46 12.9 °C -11.6 °C 1018.5 hPa Calm   4.8 km/h 17% 0 mm 0.0 W/m2
05:57 13.1 °C -11.4 °C 1018.5 hPa ESE 4.7 km/h 9.7 km/h 17% 0 mm 0.0 W/m2
06:07 12.9 °C -11.6 °C 1018.5 hPa ESE 1.4 km/h 8 km/h 17% 0 mm 0.0 W/m2
06:12 12.8 °C -11 °C 1018.5 hPa ESE 1.4 km/h 1.6 km/h 18% 0 mm 0.0 W/m2
06:17 12.6 °C -11.1 °C 1018.5 hPa ESE 1.4 km/h 8 km/h 18% 0 mm 0.0 W/m2
06:22 12.4 °C -11.3 °C 1018.5 hPa Calm     18% 0 mm 0.0 W/m2
06:27 12.3 °C -11.4 °C 1018.8 hPa Calm     18% 0 mm 0.0 W/m2
06:32 12.2 °C -11.4 °C 1018.8 hPa ESE 4.7 km/h 4.8 km/h 18% 0 mm 0.0 W/m2
06:37 12.1 °C -11.5 °C 1018.5 hPa ESE 1.4 km/h 9.7 km/h 18% 0 mm 0.0 W/m2
06:42 11.9 °C -11.7 °C 1018.8 hPa ESE 6.4 km/h 8 km/h 18% 0 mm 0.0 W/m2
06:47 11.6 °C -11.9 °C 1018.8 hPa Calm   6.4 km/h 18% 0 mm 0.0 W/m2
06:53 11.4 °C -11.4 °C 1018.8 hPa Calm     19% 0 mm 0.0 W/m2
07:03 11.3 °C -11.5 °C 1018.8 hPa Calm     19% 0 mm 5.0 W/m2
07:08 11.6 °C -11.3 °C 1018.8 hPa Calm     19% 0 mm 7.0 W/m2
07:13 12 °C -10.9 °C 1018.8 hPa Calm     19% 0 mm 9.0 W/m2
07:18 12.6 °C -11.1 °C 1018.8 hPa Calm     18% 0 mm 11.0 W/m2
07:23 12.7 °C -11 °C 1018.8 hPa Calm     18% 0 mm 12.0 W/m2
07:29 12.4 °C -11.3 °C 1019.2 hPa Calm     18% 0 mm 16.0 W/m2
07:34 12.3 °C -11.4 °C 1018.8 hPa Calm     18% 0 mm 58.0 W/m2
07:41 12.3 °C -11.4 °C 1019.2 hPa Calm     18% 0 mm 76.0 W/m2
07:51 12.5 °C -11.2 °C 1019.2 hPa Calm     18% 0 mm 111.0 W/m2
07:56 12.7 °C -11 °C 1019.2 hPa Calm     18% 0 mm 130.0 W/m2
08:14 16 °C -9.8 °C 1019.2 hPa Calm     16% 0 mm 199.0 W/m2
08:22 17.1 °C -9.8 °C 1019.5 hPa Calm   8 km/h 15% 0 mm 239.0 W/m2
08:27 17.5 °C -9.4 °C 1019.5 hPa Calm   4.8 km/h 15% 0 mm 257.0 W/m2
08:33 17.9 °C -10 °C 1019.5 hPa ESE 1.4 km/h 6.4 km/h 14% 0 mm 272.0 W/m2
08:46 18.8 °C -9.3 °C 1019.5 hPa Calm   1.6 km/h 14% 0 mm 302.0 W/m2
08:59 19.7 °C -9.5 °C 1019.5 hPa Calm     13% 0 mm 352.0 W/m2
09:07 20.3 °C -9 °C 1019.5 hPa ESE 3.2 km/h 4.8 km/h 13% 0 mm 387.0 W/m2
09:17 20.5 °C -11 °C 1019.5 hPa Calm   6.4 km/h 11% 0 mm 420.0 W/m2
09:23 20.6 °C -10.9 °C 1019.5 hPa Calm   8 km/h 11% 0 mm 436.0 W/m2
09:33 20.8 °C -10.8 °C 1019.5 hPa ESE 3.2 km/h 9.7 km/h 11% 0 mm 466.0 W/m2
09:38 20.8 °C -10.8 °C 1019.5 hPa ESE 7.9 km/h 9.7 km/h 11% 0 mm 482.0 W/m2
09:43 21 °C -10.6 °C 1019.5 hPa Calm   9.7 km/h 11% 0 mm 497.0 W/m2
09:49 21.1 °C -10.5 °C 1019.5 hPa ESE 3.2 km/h 6.4 km/h 11% 0 mm 512.0 W/m2
09:54 21.2 °C -11.6 °C 1019.9 hPa ESE 1.4 km/h 4.8 km/h 10% 0 mm 526.0 W/m2
10:03 21.5 °C -11.4 °C 1019.9 hPa Calm   14.5 km/h 10% 0 mm 554.0 W/m2
10:14 21.7 °C -11.3 °C 1019.9 hPa Calm   9.7 km/h 10% 0 mm 575.0 W/m2
10:19 21.8 °C -11.2 °C 1019.9 hPa Calm   6.4 km/h 10% 0 mm 591.0 W/m2
10:23 22 °C -11 °C 1019.5 hPa ESE 6.4 km/h 6.4 km/h 10% 0 mm 603.0 W/m2
10:33 22.2 °C -10.9 °C 1019.5 hPa Calm   11.3 km/h 10% 0 mm 626.0 W/m2
10:38 22.4 °C -10.7 °C 1019.5 hPa ESE 6.4 km/h 12.9 km/h 10% 0 mm 636.0 W/m2
10:53 22.8 °C -11.7 °C 1019.5 hPa ESE 7.9 km/h 11.3 km/h 9% 0 mm 659.0 W/m2
11:02 22.8 °C -10.4 °C 1019.5 hPa Calm   12.9 km/h 10% 0 mm 679.0 W/m2
11:12 23.1 °C -11.5 °C 1019.5 hPa ESE 11.1 km/h 17.7 km/h 9% 0 mm 694.0 W/m2
11:21 23.4 °C -11.3 °C 1019.2 hPa Calm   9.7 km/h 9% 0 mm 708.0 W/m2
11:29 23.8 °C -11 °C 1019.2 hPa ESE 4.7 km/h 11.3 km/h 9% 0 mm 722.0 W/m2
11:39 24.3 °C -10.6 °C 1018.8 hPa Calm   11.3 km/h 9% 0 mm 735.0 W/m2
11:44 24.6 °C -10.4 °C 1018.8 hPa Calm   14.5 km/h 9% 0 mm 737.0 W/m2
11:50 24.7 °C -10.3 °C 1018.8 hPa Calm   11.3 km/h 9% 0 mm 744.0 W/m2
11:55 24.6 °C -11.9 °C 1018.8 hPa Calm   9.7 km/h 8% 0 mm 747.0 W/m2
12:00 24.6 °C -10.4 °C 1018.8 hPa Calm     9% 0 mm 751.0 W/m2
12:06 25.1 °C -10 °C 1018.5 hPa Calm     9% 0 mm 754.0 W/m2
12:16 25.6 °C -9.6 °C 1018.2 hPa Calm   14.5 km/h 9% 0 mm 759.0 W/m2
12:21 25.9 °C -10.9 °C 1018.2 hPa ESE 1.4 km/h 14.5 km/h 8% 0 mm 761.0 W/m2
12:26 26.2 °C -9.2 °C 1018.2 hPa Calm   14.5 km/h 9% 0 mm 759.0 W/m2
12:36 26.7 °C -8.8 °C 1017.8 hPa East 14.3 km/h 16.1 km/h 9% 0 mm 763.0 W/m2
12:41 26.7 °C -8.8 °C 1017.8 hPa East 9.7 km/h 12.9 km/h 9% 0 mm 763.0 W/m2
12:51 26.8 °C -8.7 °C 1017.5 hPa East 4.7 km/h 14.5 km/h 9% 0 mm 758.0 W/m2
12:56 26.8 °C -8.7 °C 1017.5 hPa East 3.2 km/h 8 km/h 9% 0 mm 756.0 W/m2
13:02 27.3 °C -8.4 °C 1017.5 hPa ENE 1.4 km/h 12.9 km/h 9% 0 mm 752.0 W/m2
13:07 27.5 °C -8.2 °C 1017.2 hPa ENE 6.4 km/h 14.5 km/h 9% 0 mm 749.0 W/m2
13:17 27.9 °C -7.9 °C 1016.8 hPa Calm   9.7 km/h 9% 0 mm 740.0 W/m2
13:26 28.2 °C -7.7 °C 1016.8 hPa NE 16.3 km/h 16.3 km/h 9% 0 mm 728.0 W/m2
13:32 28.4 °C -9 °C 1016.8 hPa NE 3.2 km/h 14.5 km/h 8% 0 mm 722.0 W/m2
13:45 28.7 °C -8.8 °C 1016.5 hPa NE 6.4 km/h 12.9 km/h 8% 0 mm 710.0 W/m2
13:57 28.9 °C -7.2 °C 1016.1 hPa Calm   4.8 km/h 9% 0 mm 691.0 W/m2
14:28 29.9 °C -6.4 °C 1015.5 hPa NE 3.2 km/h 12.9 km/h 9% 0 mm 642.0 W/m2
14:57 30.6 °C -7.4 °C 1015.1 hPa NE 1.4 km/h 1.6 km/h 8% 0 mm 573.0 W/m2
15:07 31.1 °C -7 °C 1014.8 hPa Calm   9.7 km/h 8% 0 mm 548.0 W/m2
15:18 31.1 °C -7 °C 1014.4 hPa NE 6.4 km/h 12.9 km/h 8% 0 mm 524.0 W/m2
15:33 31 °C -7.1 °C 1014.4 hPa Calm   8 km/h 8% 0 mm 483.0 W/m2
15:47 30.9 °C -7.2 °C 1014.1 hPa North 9.7 km/h 12.9 km/h 8% 0 mm 468.0 W/m2
15:56 31.3 °C -6.9 °C 1014.1 hPa North 7.9 km/h 11.3 km/h 8% 0 mm 434.0 W/m2
16:01 31.3 °C -6.9 °C 1013.8 hPa Calm   8 km/h 8% 0 mm 422.0 W/m2
16:12 31.4 °C -6.8 °C 1013.8 hPa Calm   16.1 km/h 8% 0 mm 388.0 W/m2
16:23 31.6 °C -6.7 °C 1013.4 hPa North 7.9 km/h 9.7 km/h 8% 0 mm 357.0 W/m2
16:32 31.3 °C -6.9 °C 1013.4 hPa Calm     8% 0 mm 330.0 W/m2
16:41 31.3 °C -6.9 °C 1013.4 hPa Calm     8% 0 mm 297.0 W/m2
16:46 31.4 °C -5.3 °C 1013.4 hPa North 1.4 km/h 16.1 km/h 9% 0 mm 279.0 W/m2
16:55 31.4 °C -5.3 °C 1013.4 hPa Calm   1.6 km/h 9% 0 mm 246.0 W/m2
17:06 31.2 °C -5.4 °C 1013.4 hPa North 3.2 km/h 3.2 km/h 9% 0 mm 213.0 W/m2
17:12 31.2 °C -5.4 °C 1013.4 hPa North 13 km/h 17.7 km/h 9% 0 mm 195.0 W/m2
17:20 31 °C -7.1 °C 1013.4 hPa North 6.4 km/h 14.5 km/h 8% 0 mm 162.0 W/m2
17:26 31 °C -7.1 °C 1013.4 hPa Calm   8 km/h 8% 0 mm 146.0 W/m2
17:35 30.8 °C -5.7 °C 1013.4 hPa NNE 11.1 km/h 14.5 km/h 9% 0 mm 116.0 W/m2
17:47 30.6 °C -5.9 °C 1013.4 hPa Calm   8 km/h 9% 0 mm 84.0 W/m2
17:52 30.6 °C -5.9 °C 1013.4 hPa NNE 3.2 km/h 8 km/h 9% 0 mm 72.0 W/m2
17:59 30.6 °C -5.9 °C 1013.4 hPa NNE 6.4 km/h 8 km/h 9% 0 mm 60.0 W/m2
18:09 30.4 °C -6 °C 1013.4 hPa NNE 1.4 km/h 9.7 km/h 9% 0 mm 37.0 W/m2
18:17 30 °C -6.3 °C 1013.4 hPa NNE 1.4 km/h 3.2 km/h 9% 0 mm 18.0 W/m2
18:27 29.4 °C -6.8 °C 1013.4 hPa Calm     9% 0 mm 9.0 W/m2
18:37 28.7 °C -7.3 °C 1013.4 hPa Calm     9% 0 mm 0.0 W/m2
18:43 28.3 °C -7.6 °C 1013.4 hPa Calm     9% 0 mm 0.0 W/m2
18:54 27.6 °C -8.1 °C 1013.8 hPa Calm     9% 0 mm 0.0 W/m2
19:04 26.8 °C -7.4 °C 1013.8 hPa Calm     10% 0 mm 0.0 W/m2
19:49 23.7 °C -8.5 °C 1014.1 hPa Calm     11% 0 mm 0.0 W/m2
20:03 23 °C -6.9 °C 1014.1 hPa Calm   3.2 km/h 13% 0 mm 0.0 W/m2
20:15 23.1 °C -6.8 °C 1014.1 hPa Calm   8 km/h 13% 0 mm 0.0 W/m2
20:29 23.2 °C -6.8 °C 1014.1 hPa Calm     13% 0 mm 0.0 W/m2
20:38 22.8 °C -7.1 °C 1014.4 hPa Calm   8 km/h 13% 0 mm 0.0 W/m2
20:47 22.4 °C -7.4 °C 1014.4 hPa Calm   6.4 km/h 13% 0 mm 0.0 W/m2
20:56 22.1 °C -6.7 °C 1014.4 hPa Calm   8 km/h 14% 0 mm 0.0 W/m2
21:05 22.5 °C -5.4 °C 1014.4 hPa NNE 3.2 km/h 9.7 km/h 15% 0 mm 0.0 W/m2
21:10 22.8 °C -5.2 °C 1014.4 hPa NNE 6.4 km/h 9.7 km/h 15% 0 mm 0.0 W/m2
21:16 22.9 °C -5.1 °C 1014.4 hPa NNE 3.2 km/h 6.4 km/h 15% 0 mm 0.0 W/m2
21:25 22.6 °C -5.4 °C 1014.4 hPa Calm   9.7 km/h 15% 0 mm 0.0 W/m2
21:36 22.6 °C -4.5 °C 1014.4 hPa NNE 3.2 km/h 9.7 km/h 16% 0 mm 0.0 W/m2
21:41 22.5 °C -4.6 °C 1014.4 hPa NNE 3.2 km/h 11.3 km/h 16% 0 mm 0.0 W/m2
21:51 22.3 °C -4.7 °C 1014.8 hPa NNE 11.1 km/h 11.3 km/h 16% 0 mm 0.0 W/m2
21:56 22.4 °C -3.9 °C 1014.8 hPa NNE 3.2 km/h 9.7 km/h 17% 0 mm 0.0 W/m2
22:06 22.6 °C -3.7 °C 1014.8 hPa NNE 7.9 km/h 12.9 km/h 17% 0 mm 0.0 W/m2
22:11 22.7 °C -3.6 °C 1014.8 hPa NNE 1.4 km/h 14.5 km/h 17% 0 mm 0.0 W/m2
22:17 22.7 °C -3.6 °C 1014.8 hPa NNE 7.9 km/h 11.3 km/h 17% 0 mm 0.0 W/m2
22:26 22.9 °C -2.7 °C 1014.4 hPa NNE 9.7 km/h 16.1 km/h 18% 0 mm 0.0 W/m2
22:31 23.1 °C -3.3 °C 1014.8 hPa NNE 6.4 km/h 16.1 km/h 17% 0 mm 0.0 W/m2
22:36 23 °C -3.4 °C 1014.8 hPa NNE 1.4 km/h 14.5 km/h 17% 0 mm 0.0 W/m2
22:41 22.9 °C -3.5 °C 1014.8 hPa NNE 9.7 km/h 14.5 km/h 17% 0 mm 0.0 W/m2
22:47 22.8 °C -2.8 °C 1014.4 hPa NNE 11.1 km/h 14.5 km/h 18% 0 mm 0.0 W/m2
22:56 22.8 °C -3.5 °C 1014.4 hPa NNE 9.7 km/h 12.9 km/h 17% 0 mm 0.0 W/m2
23:06 22.8 °C -3.5 °C 1014.4 hPa NNE 9.7 km/h 12.9 km/h 17% 0 mm 0.0 W/m2
23:11 22.7 °C -3.6 °C 1014.4 hPa NNE 6.4 km/h 12.9 km/h 17% 0 mm 0.0 W/m2
23:17 22.6 °C -3.7 °C 1014.4 hPa NNE 7.9 km/h 12.9 km/h 17% 0 mm 0.0 W/m2
23:27 22.4 °C -3.1 °C 1014.4 hPa NNE 3.2 km/h 11.3 km/h 18% 0 mm 0.0 W/m2
23:36 22 °C -3.4 °C 1014.4 hPa NNE 7.9 km/h 9.7 km/h 18% 0 mm 0.0 W/m2
23:42 21.9 °C -3.5 °C 1014.4 hPa NNE 7.9 km/h 11.3 km/h 18% 0 mm 0.0 W/m2
23:47 21.9 °C -2.8 °C 1014.4 hPa NNE 6.4 km/h 9.7 km/h 19% 0 mm 0.0 W/m2
23:52 22 °C -2.7 °C 1014.4 hPa Calm   12.9 km/h 19% 0 mm 0.0 W/m2
23:57 22 °C -2.7 °C 1014.4 hPa NNE 3.2 km/h 9.7 km/h 19% 0 mm 0.0 W/m2
Canyon Roadhouse, Fishriver Canyon, Namibia
Compliments of Weather Underground - 2.5 mb